sensor_id;sensor_type;location;lat;lon;timestamp;P1;durP1;ratioP1;P2;durP2;ratioP2
75280;SDS011;63874;47.230;39.620;2023-07-28T00:00:02;2.63;;;1.08;;
75280;SDS011;63874;47.230;39.620;2023-07-28T00:02:35;3.65;;;0.57;;
75280;SDS011;63874;47.230;39.620;2023-07-28T00:05:01;4.05;;;1.17;;
75280;SDS011;63874;47.230;39.620;2023-07-28T00:07:27;4.75;;;1.20;;
75280;SDS011;63874;47.230;39.620;2023-07-28T00:09:53;4.75;;;1.65;;
75280;SDS011;63874;47.230;39.620;2023-07-28T00:12:18;2.20;;;0.55;;
75280;SDS011;63874;47.230;39.620;2023-07-28T00:14:44;3.63;;;0.40;;
75280;SDS011;63874;47.230;39.620;2023-07-28T00:17:10;2.92;;;0.60;;
75280;SDS011;63874;47.230;39.620;2023-07-28T00:19:36;4.47;;;1.08;;
75280;SDS011;63874;47.230;39.620;2023-07-28T00:22:02;3.85;;;0.40;;
75280;SDS011;63874;47.230;39.620;2023-07-28T00:24:27;5.32;;;0.30;;
75280;SDS011;63874;47.230;39.620;2023-07-28T00:26:53;6.50;;;1.70;;
75280;SDS011;63874;47.230;39.620;2023-07-28T00:29:19;2.95;;;1.02;;
75280;SDS011;63874;47.230;39.620;2023-07-28T00:31:45;3.08;;;0.47;;
75280;SDS011;63874;47.230;39.620;2023-07-28T00:34:10;3.08;;;0.82;;
75280;SDS011;63874;47.230;39.620;2023-07-28T00:36:36;3.70;;;1.20;;
75280;SDS011;63874;47.230;39.620;2023-07-28T00:39:02;4.00;;;1.13;;
75280;SDS011;63874;47.230;39.620;2023-07-28T00:41:28;4.93;;;1.10;;
75280;SDS011;63874;47.230;39.620;2023-07-28T00:43:54;3.42;;;0.88;;
75280;SDS011;63874;47.230;39.620;2023-07-28T00:46:20;3.40;;;0.30;;
75280;SDS011;63874;47.230;39.620;2023-07-28T00:48:46;2.72;;;0.40;;
75280;SDS011;63874;47.230;39.620;2023-07-28T00:51:12;5.22;;;1.10;;
75280;SDS011;63874;47.230;39.620;2023-07-28T00:53:38;4.20;;;0.82;;
75280;SDS011;63874;47.230;39.620;2023-07-28T00:56:05;2.28;;;0.70;;
75280;SDS011;63874;47.230;39.620;2023-07-28T00:58:32;4.30;;;0.55;;
75280;SDS011;63874;47.230;39.620;2023-07-28T01:00:58;4.70;;;1.25;;
75280;SDS011;63874;47.230;39.620;2023-07-28T01:03:24;7.90;;;1.77;;
75280;SDS011;63874;47.230;39.620;2023-07-28T01:08:56;2.25;;;0.40;;
75280;SDS011;63874;47.230;39.620;2023-07-28T01:11:25;4.50;;;0.65;;
75280;SDS011;63874;47.230;39.620;2023-07-28T01:13:51;4.25;;;0.50;;
75280;SDS011;63874;47.230;39.620;2023-07-28T01:16:17;3.45;;;1.10;;
75280;SDS011;63874;47.230;39.620;2023-07-28T01:18:43;3.40;;;0.52;;
75280;SDS011;63874;47.230;39.620;2023-07-28T01:21:09;4.32;;;0.40;;
75280;SDS011;63874;47.230;39.620;2023-07-28T01:26:38;5.90;;;0.98;;
75280;SDS011;63874;47.230;39.620;2023-07-28T01:29:05;3.85;;;0.52;;
75280;SDS011;63874;47.230;39.620;2023-07-28T01:31:32;2.63;;;1.08;;
75280;SDS011;63874;47.230;39.620;2023-07-28T01:33:58;5.15;;;1.20;;
75280;SDS011;63874;47.230;39.620;2023-07-28T01:36:24;3.38;;;0.50;;
75280;SDS011;63874;47.230;39.620;2023-07-28T01:38:50;2.80;;;0.50;;
75280;SDS011;63874;47.230;39.620;2023-07-28T01:41:16;2.78;;;1.23;;
75280;SDS011;63874;47.230;39.620;2023-07-28T01:43:42;3.92;;;1.40;;
75280;SDS011;63874;47.230;39.620;2023-07-28T01:46:08;2.80;;;0.50;;
75280;SDS011;63874;47.230;39.620;2023-07-28T01:48:33;1.63;;;0.38;;
75280;SDS011;63874;47.230;39.620;2023-07-28T01:51:00;3.35;;;0.40;;
75280;SDS011;63874;47.230;39.620;2023-07-28T01:53:26;3.33;;;0.50;;
75280;SDS011;63874;47.230;39.620;2023-07-28T01:55:52;3.47;;;1.23;;
75280;SDS011;63874;47.230;39.620;2023-07-28T01:58:18;2.85;;;0.52;;
75280;SDS011;63874;47.230;39.620;2023-07-28T02:00:44;3.65;;;1.05;;
75280;SDS011;63874;47.230;39.620;2023-07-28T02:03:11;2.83;;;0.32;;
75280;SDS011;63874;47.230;39.620;2023-07-28T02:05:37;3.45;;;0.65;;
75280;SDS011;63874;47.230;39.620;2023-07-28T02:08:03;3.00;;;0.30;;
75280;SDS011;63874;47.230;39.620;2023-07-28T02:10:29;4.97;;;0.98;;
75280;SDS011;63874;47.230;39.620;2023-07-28T02:12:55;3.50;;;0.57;;
75280;SDS011;63874;47.230;39.620;2023-07-28T02:15:21;2.38;;;0.75;;
75280;SDS011;63874;47.230;39.620;2023-07-28T02:17:47;2.95;;;0.43;;
75280;SDS011;63874;47.230;39.620;2023-07-28T02:20:13;3.05;;;1.10;;
75280;SDS011;63874;47.230;39.620;2023-07-28T02:22:41;3.97;;;1.00;;
75280;SDS011;63874;47.230;39.620;2023-07-28T02:25:07;3.15;;;0.52;;
75280;SDS011;63874;47.230;39.620;2023-07-28T02:27:33;3.83;;;0.70;;
75280;SDS011;63874;47.230;39.620;2023-07-28T02:29:59;4.35;;;0.50;;
75280;SDS011;63874;47.230;39.620;2023-07-28T02:32:26;2.60;;;0.32;;
75280;SDS011;63874;47.230;39.620;2023-07-28T02:34:54;4.93;;;0.50;;
75280;SDS011;63874;47.230;39.620;2023-07-28T02:37:19;4.13;;;1.75;;
75280;SDS011;63874;47.230;39.620;2023-07-28T02:39:45;3.42;;;0.95;;
75280;SDS011;63874;47.230;39.620;2023-07-28T02:42:11;3.35;;;0.32;;
75280;SDS011;63874;47.230;39.620;2023-07-28T02:44:38;3.33;;;0.50;;
75280;SDS011;63874;47.230;39.620;2023-07-28T02:47:04;6.00;;;1.30;;
75280;SDS011;63874;47.230;39.620;2023-07-28T02:49:30;3.10;;;0.47;;
75280;SDS011;63874;47.230;39.620;2023-07-28T02:51:56;4.15;;;0.47;;
75280;SDS011;63874;47.230;39.620;2023-07-28T02:54:22;3.78;;;0.38;;
75280;SDS011;63874;47.230;39.620;2023-07-28T02:56:51;3.67;;;0.45;;
75280;SDS011;63874;47.230;39.620;2023-07-28T02:59:17;3.60;;;0.52;;
75280;SDS011;63874;47.230;39.620;2023-07-28T03:01:43;2.47;;;0.30;;
75280;SDS011;63874;47.230;39.620;2023-07-28T03:04:09;2.50;;;0.35;;
75280;SDS011;63874;47.230;39.620;2023-07-28T03:06:55;3.95;;;0.60;;
75280;SDS011;63874;47.230;39.620;2023-07-28T03:09:22;5.38;;;0.90;;
75280;SDS011;63874;47.230;39.620;2023-07-28T03:12:00;3.47;;;0.30;;
75280;SDS011;63874;47.230;39.620;2023-07-28T03:14:26;4.88;;;0.40;;
75280;SDS011;63874;47.230;39.620;2023-07-28T03:16:53;2.65;;;0.47;;
75280;SDS011;63874;47.230;39.620;2023-07-28T03:19:19;3.92;;;0.90;;
75280;SDS011;63874;47.230;39.620;2023-07-28T03:21:45;2.63;;;0.30;;
75280;SDS011;63874;47.230;39.620;2023-07-28T03:24:11;3.67;;;0.52;;
75280;SDS011;63874;47.230;39.620;2023-07-28T03:26:37;2.85;;;1.27;;
75280;SDS011;63874;47.230;39.620;2023-07-28T03:29:03;2.20;;;0.30;;
75280;SDS011;63874;47.230;39.620;2023-07-28T03:31:29;2.83;;;0.40;;
75280;SDS011;63874;47.230;39.620;2023-07-28T03:33:55;4.30;;;0.60;;
75280;SDS011;63874;47.230;39.620;2023-07-28T03:36:24;3.53;;;0.93;;
75280;SDS011;63874;47.230;39.620;2023-07-28T03:38:50;2.65;;;0.40;;
75280;SDS011;63874;47.230;39.620;2023-07-28T03:41:17;3.22;;;0.95;;
75280;SDS011;63874;47.230;39.620;2023-07-28T03:43:43;4.85;;;1.88;;
75280;SDS011;63874;47.230;39.620;2023-07-28T03:46:09;2.17;;;0.38;;
75280;SDS011;63874;47.230;39.620;2023-07-28T03:48:35;3.05;;;0.40;;
75280;SDS011;63874;47.230;39.620;2023-07-28T03:51:01;3.22;;;0.50;;
75280;SDS011;63874;47.230;39.620;2023-07-28T03:53:27;3.17;;;0.35;;
75280;SDS011;63874;47.230;39.620;2023-07-28T03:55:52;3.92;;;0.47;;
75280;SDS011;63874;47.230;39.620;2023-07-28T03:58:23;1.20;;;0.20;;
75280;SDS011;63874;47.230;39.620;2023-07-28T04:00:51;4.88;;;0.38;;
75280;SDS011;63874;47.230;39.620;2023-07-28T04:03:18;3.08;;;0.50;;
75280;SDS011;63874;47.230;39.620;2023-07-28T04:05:45;2.75;;;0.40;;
75280;SDS011;63874;47.230;39.620;2023-07-28T04:08:11;3.40;;;0.32;;
75280;SDS011;63874;47.230;39.620;2023-07-28T04:10:36;3.13;;;0.25;;
75280;SDS011;63874;47.230;39.620;2023-07-28T04:13:02;2.67;;;0.40;;
75280;SDS011;63874;47.230;39.620;2023-07-28T04:15:28;2.88;;;0.32;;
75280;SDS011;63874;47.230;39.620;2023-07-28T04:17:54;2.63;;;0.50;;
75280;SDS011;63874;47.230;39.620;2023-07-28T04:20:20;3.28;;;0.93;;
75280;SDS011;63874;47.230;39.620;2023-07-28T04:22:46;1.58;;;0.13;;
75280;SDS011;63874;47.230;39.620;2023-07-28T04:25:12;2.90;;;0.30;;
75280;SDS011;63874;47.230;39.620;2023-07-28T04:27:42;4.07;;;0.75;;
75280;SDS011;63874;47.230;39.620;2023-07-28T04:30:08;3.13;;;0.85;;
75280;SDS011;63874;47.230;39.620;2023-07-28T04:32:34;2.50;;;0.90;;
75280;SDS011;63874;47.230;39.620;2023-07-28T04:35:08;2.85;;;0.70;;
75280;SDS011;63874;47.230;39.620;2023-07-28T04:37:54;3.17;;;0.63;;
75280;SDS011;63874;47.230;39.620;2023-07-28T04:40:39;2.83;;;0.50;;
75280;SDS011;63874;47.230;39.620;2023-07-28T04:43:06;3.13;;;0.35;;
75280;SDS011;63874;47.230;39.620;2023-07-28T04:45:32;4.45;;;0.43;;
75280;SDS011;63874;47.230;39.620;2023-07-28T04:48:01;2.67;;;0.43;;
75280;SDS011;63874;47.230;39.620;2023-07-28T04:50:28;3.25;;;0.50;;
75280;SDS011;63874;47.230;39.620;2023-07-28T04:53:14;1.70;;;0.20;;
75280;SDS011;63874;47.230;39.620;2023-07-28T04:56:00;3.10;;;0.30;;
75280;SDS011;63874;47.230;39.620;2023-07-28T04:58:26;2.60;;;0.30;;
75280;SDS011;63874;47.230;39.620;2023-07-28T05:00:53;3.38;;;0.30;;
75280;SDS011;63874;47.230;39.620;2023-07-28T05:03:19;2.67;;;0.30;;
75280;SDS011;63874;47.230;39.620;2023-07-28T05:05:55;5.75;;;0.60;;
75280;SDS011;63874;47.230;39.620;2023-07-28T05:08:23;2.45;;;1.02;;
75280;SDS011;63874;47.230;39.620;2023-07-28T05:10:49;3.70;;;0.88;;
75280;SDS011;63874;47.230;39.620;2023-07-28T05:13:15;2.30;;;0.30;;
75280;SDS011;63874;47.230;39.620;2023-07-28T05:15:49;3.92;;;0.82;;
75280;SDS011;63874;47.230;39.620;2023-07-28T05:18:27;4.53;;;0.82;;
75280;SDS011;63874;47.230;39.620;2023-07-28T05:21:13;2.88;;;0.50;;
75280;SDS011;63874;47.230;39.620;2023-07-28T05:23:39;2.15;;;0.38;;
75280;SDS011;63874;47.230;39.620;2023-07-28T05:26:04;2.35;;;0.35;;
75280;SDS011;63874;47.230;39.620;2023-07-28T05:31:05;3.03;;;0.75;;
75280;SDS011;63874;47.230;39.620;2023-07-28T05:33:33;2.22;;;0.40;;
75280;SDS011;63874;47.230;39.620;2023-07-28T05:36:04;3.35;;;1.02;;
75280;SDS011;63874;47.230;39.620;2023-07-28T05:38:30;3.80;;;0.35;;
75280;SDS011;63874;47.230;39.620;2023-07-28T05:41:00;3.72;;;1.08;;
75280;SDS011;63874;47.230;39.620;2023-07-28T05:43:26;1.63;;;0.45;;
75280;SDS011;63874;47.230;39.620;2023-07-28T05:45:56;3.53;;;0.32;;
75280;SDS011;63874;47.230;39.620;2023-07-28T05:48:24;1.70;;;0.30;;
75280;SDS011;63874;47.230;39.620;2023-07-28T05:50:50;2.63;;;0.28;;
75280;SDS011;63874;47.230;39.620;2023-07-28T05:53:21;3.28;;;0.38;;
75280;SDS011;63874;47.230;39.620;2023-07-28T05:55:51;3.63;;;1.30;;
75280;SDS011;63874;47.230;39.620;2023-07-28T05:58:17;3.30;;;0.22;;
75280;SDS011;63874;47.230;39.620;2023-07-28T06:00:43;3.63;;;0.50;;
75280;SDS011;63874;47.230;39.620;2023-07-28T06:03:21;3.13;;;0.50;;
75280;SDS011;63874;47.230;39.620;2023-07-28T06:06:01;4.15;;;0.52;;
75280;SDS011;63874;47.230;39.620;2023-07-28T06:08:28;2.58;;;0.38;;
75280;SDS011;63874;47.230;39.620;2023-07-28T06:10:56;4.80;;;1.10;;
75280;SDS011;63874;47.230;39.620;2023-07-28T06:13:22;2.45;;;0.30;;
75280;SDS011;63874;47.230;39.620;2023-07-28T06:15:47;2.45;;;0.93;;
75280;SDS011;63874;47.230;39.620;2023-07-28T09:36:12;7.10;;;2.42;;
75280;SDS011;63874;47.230;39.620;2023-07-28T09:38:41;5.90;;;2.60;;
75280;SDS011;63874;47.230;39.620;2023-07-28T09:41:08;5.90;;;3.10;;
75280;SDS011;63874;47.230;39.620;2023-07-28T09:43:39;4.40;;;2.53;;
75280;SDS011;63874;47.230;39.620;2023-07-28T09:46:07;4.97;;;3.00;;
75280;SDS011;63874;47.230;39.620;2023-07-28T09:48:34;6.68;;;3.58;;
75280;SDS011;63874;47.230;39.620;2023-07-28T09:51:02;5.30;;;1.70;;
75280;SDS011;63874;47.230;39.620;2023-07-28T09:53:39;5.53;;;3.50;;
75280;SDS011;63874;47.230;39.620;2023-07-28T09:56:10;5.38;;;3.08;;
75280;SDS011;63874;47.230;39.620;2023-07-28T09:58:41;3.72;;;2.20;;
75280;SDS011;63874;47.230;39.620;2023-07-28T10:01:14;3.85;;;1.33;;
75280;SDS011;63874;47.230;39.620;2023-07-28T10:03:40;3.38;;;0.95;;
75280;SDS011;63874;47.230;39.620;2023-07-28T10:06:07;1.85;;;0.55;;
75280;SDS011;63874;47.230;39.620;2023-07-28T10:08:33;2.78;;;0.63;;
75280;SDS011;63874;47.230;39.620;2023-07-28T10:10:59;2.83;;;1.05;;
75280;SDS011;63874;47.230;39.620;2023-07-28T10:13:27;1.90;;;0.70;;
75280;SDS011;63874;47.230;39.620;2023-07-28T10:15:53;2.22;;;0.68;;
75280;SDS011;63874;47.230;39.620;2023-07-28T10:18:20;3.10;;;0.82;;
75280;SDS011;63874;47.230;39.620;2023-07-28T10:20:47;3.67;;;1.13;;
75280;SDS011;63874;47.230;39.620;2023-07-28T10:23:15;4.40;;;2.28;;
75280;SDS011;63874;47.230;39.620;2023-07-28T10:25:47;3.75;;;1.02;;
75280;SDS011;63874;47.230;39.620;2023-07-28T10:28:35;3.55;;;1.25;;
75280;SDS011;63874;47.230;39.620;2023-07-28T10:31:07;4.50;;;1.10;;
75280;SDS011;63874;47.230;39.620;2023-07-28T10:33:39;3.22;;;1.40;;
75280;SDS011;63874;47.230;39.620;2023-07-28T10:36:13;2.40;;;1.10;;
75280;SDS011;63874;47.230;39.620;2023-07-28T10:38:43;3.08;;;1.08;;
75280;SDS011;63874;47.230;39.620;2023-07-28T10:41:12;3.85;;;1.85;;
75280;SDS011;63874;47.230;39.620;2023-07-28T10:43:42;2.30;;;0.80;;
75280;SDS011;63874;47.230;39.620;2023-07-28T10:46:10;2.38;;;1.35;;
75280;SDS011;63874;47.230;39.620;2023-07-28T10:48:41;1.75;;;0.60;;
75280;SDS011;63874;47.230;39.620;2023-07-28T10:51:09;1.52;;;0.50;;
75280;SDS011;63874;47.230;39.620;2023-07-28T10:53:37;3.30;;;0.60;;
75280;SDS011;63874;47.230;39.620;2023-07-28T10:56:03;2.08;;;0.50;;
75280;SDS011;63874;47.230;39.620;2023-07-28T10:58:33;2.50;;;0.40;;
75280;SDS011;63874;47.230;39.620;2023-07-28T11:01:00;2.15;;;0.35;;
75280;SDS011;63874;47.230;39.620;2023-07-28T11:03:27;1.65;;;0.30;;
75280;SDS011;63874;47.230;39.620;2023-07-28T11:05:54;2.08;;;0.32;;
75280;SDS011;63874;47.230;39.620;2023-07-28T11:08:22;2.03;;;0.43;;
75280;SDS011;63874;47.230;39.620;2023-07-28T11:10:48;3.35;;;0.43;;
75280;SDS011;63874;47.230;39.620;2023-07-28T11:13:14;3.42;;;0.82;;
75280;SDS011;63874;47.230;39.620;2023-07-28T11:15:40;1.90;;;1.02;;
75280;SDS011;63874;47.230;39.620;2023-07-28T12:36:55;0.98;;;0.10;;
75280;SDS011;63874;47.230;39.620;2023-07-28T12:39:21;2.63;;;0.25;;
75280;SDS011;63874;47.230;39.620;2023-07-28T12:41:48;1.15;;;0.13;;
75280;SDS011;63874;47.230;39.620;2023-07-28T12:44:16;0.98;;;0.00;;
75280;SDS011;63874;47.230;39.620;2023-07-28T12:54:01;1.00;;;0.10;;
75280;SDS011;63874;47.230;39.620;2023-07-28T13:03:44;2.50;;;0.50;;
75280;SDS011;63874;47.230;39.620;2023-07-28T13:06:10;1.45;;;0.10;;
75280;SDS011;63874;47.230;39.620;2023-07-28T13:08:36;0.40;;;0.10;;
75280;SDS011;63874;47.230;39.620;2023-07-28T13:11:02;0.57;;;0.20;;
75280;SDS011;63874;47.230;39.620;2023-07-28T13:13:28;1.85;;;0.75;;
75280;SDS011;63874;47.230;39.620;2023-07-28T13:15:55;1.00;;;0.20;;
75280;SDS011;63874;47.230;39.620;2023-07-28T13:18:23;0.93;;;0.00;;
75280;SDS011;63874;47.230;39.620;2023-07-28T13:20:50;3.30;;;0.20;;
75280;SDS011;63874;47.230;39.620;2023-07-28T13:23:16;1.38;;;0.10;;
75280;SDS011;63874;47.230;39.620;2023-07-28T13:25:42;0.73;;;0.15;;
75280;SDS011;63874;47.230;39.620;2023-07-28T13:28:08;1.52;;;0.43;;
75280;SDS011;63874;47.230;39.620;2023-07-28T13:30:34;2.78;;;0.10;;
75280;SDS011;63874;47.230;39.620;2023-07-28T13:33:00;1.88;;;0.32;;
75280;SDS011;63874;47.230;39.620;2023-07-28T13:35:27;0.52;;;0.05;;
75280;SDS011;63874;47.230;39.620;2023-07-28T13:37:53;0.57;;;0.30;;
75280;SDS011;63874;47.230;39.620;2023-07-28T13:40:19;0.22;;;0.00;;
75280;SDS011;63874;47.230;39.620;2023-07-28T13:42:47;0.60;;;0.10;;
75280;SDS011;63874;47.230;39.620;2023-07-28T13:45:13;1.58;;;0.10;;
75280;SDS011;63874;47.230;39.620;2023-07-28T13:47:39;1.88;;;0.10;;
75280;SDS011;63874;47.230;39.620;2023-07-28T13:50:05;1.45;;;0.10;;
75280;SDS011;63874;47.230;39.620;2023-07-28T13:52:32;0.77;;;0.40;;
75280;SDS011;63874;47.230;39.620;2023-07-28T13:54:58;0.35;;;0.10;;
75280;SDS011;63874;47.230;39.620;2023-07-28T13:57:24;2.78;;;0.10;;
75280;SDS011;63874;47.230;39.620;2023-07-28T13:59:52;1.73;;;0.08;;
75280;SDS011;63874;47.230;39.620;2023-07-28T14:02:18;1.20;;;0.10;;
75280;SDS011;63874;47.230;39.620;2023-07-28T14:04:43;2.03;;;0.45;;
75280;SDS011;63874;47.230;39.620;2023-07-28T14:07:10;0.98;;;0.10;;
75280;SDS011;63874;47.230;39.620;2023-07-28T14:09:36;0.20;;;0.10;;
75280;SDS011;63874;47.230;39.620;2023-07-28T14:12:03;1.17;;;0.10;;
75280;SDS011;63874;47.230;39.620;2023-07-28T14:14:29;2.00;;;0.52;;
75280;SDS011;63874;47.230;39.620;2023-07-28T14:16:55;0.60;;;0.13;;
75280;SDS011;63874;47.230;39.620;2023-07-28T14:19:21;1.52;;;0.10;;
75280;SDS011;63874;47.230;39.620;2023-07-28T14:21:47;0.75;;;0.20;;
75280;SDS011;63874;47.230;39.620;2023-07-28T14:24:13;0.93;;;0.47;;
75280;SDS011;63874;47.230;39.620;2023-07-28T14:26:39;0.52;;;0.10;;
75280;SDS011;63874;47.230;39.620;2023-07-28T14:29:05;0.63;;;0.03;;
75280;SDS011;63874;47.230;39.620;2023-07-28T14:31:31;0.70;;;0.10;;
75280;SDS011;63874;47.230;39.620;2023-07-28T14:33:57;1.15;;;0.10;;
75280;SDS011;63874;47.230;39.620;2023-07-28T14:36:23;1.52;;;0.10;;
75280;SDS011;63874;47.230;39.620;2023-07-28T14:38:49;0.20;;;0.10;;
75280;SDS011;63874;47.230;39.620;2023-07-28T14:41:15;1.08;;;0.05;;
75280;SDS011;63874;47.230;39.620;2023-07-28T14:43:40;1.00;;;0.10;;
75280;SDS011;63874;47.230;39.620;2023-07-28T14:46:06;0.73;;;0.32;;
75280;SDS011;63874;47.230;39.620;2023-07-28T14:48:32;0.70;;;0.10;;
75280;SDS011;63874;47.230;39.620;2023-07-28T14:51:00;0.70;;;0.10;;
75280;SDS011;63874;47.230;39.620;2023-07-28T14:53:36;1.45;;;0.10;;
75280;SDS011;63874;47.230;39.620;2023-07-28T14:56:03;1.40;;;0.68;;
75280;SDS011;63874;47.230;39.620;2023-07-28T14:58:30;0.93;;;0.57;;
75280;SDS011;63874;47.230;39.620;2023-07-28T15:00:56;0.93;;;0.10;;
75280;SDS011;63874;47.230;39.620;2023-07-28T15:03:25;0.38;;;0.10;;
75280;SDS011;63874;47.230;39.620;2023-07-28T15:05:53;0.73;;;0.30;;
75280;SDS011;63874;47.230;39.620;2023-07-28T15:08:21;0.40;;;0.10;;
75280;SDS011;63874;47.230;39.620;2023-07-28T15:10:47;0.30;;;0.10;;
75280;SDS011;63874;47.230;39.620;2023-07-28T15:13:13;0.68;;;0.10;;
75280;SDS011;63874;47.230;39.620;2023-07-28T15:15:39;0.60;;;0.10;;
75280;SDS011;63874;47.230;39.620;2023-07-28T15:18:05;1.30;;;0.68;;
75280;SDS011;63874;47.230;39.620;2023-07-28T15:20:32;0.82;;;0.40;;
75280;SDS011;63874;47.230;39.620;2023-07-28T15:22:59;0.20;;;0.08;;
75280;SDS011;63874;47.230;39.620;2023-07-28T15:25:26;0.80;;;0.10;;
75280;SDS011;63874;47.230;39.620;2023-07-28T15:27:52;0.43;;;0.20;;
75280;SDS011;63874;47.230;39.620;2023-07-28T15:30:18;1.75;;;1.65;;
75280;SDS011;63874;47.230;39.620;2023-07-28T15:32:44;1.23;;;0.60;;
75280;SDS011;63874;47.230;39.620;2023-07-28T15:35:10;0.95;;;0.10;;
75280;SDS011;63874;47.230;39.620;2023-07-28T15:37:36;1.15;;;0.20;;
75280;SDS011;63874;47.230;39.620;2023-07-28T15:40:03;0.30;;;0.00;;
75280;SDS011;63874;47.230;39.620;2023-07-28T15:42:30;1.08;;;0.30;;
75280;SDS011;63874;47.230;39.620;2023-07-28T15:44:55;1.13;;;0.68;;
75280;SDS011;63874;47.230;39.620;2023-07-28T15:47:22;1.40;;;0.75;;
75280;SDS011;63874;47.230;39.620;2023-07-28T15:49:47;1.02;;;0.32;;
75280;SDS011;63874;47.230;39.620;2023-07-28T15:52:16;0.63;;;0.10;;
75280;SDS011;63874;47.230;39.620;2023-07-28T15:54:42;1.55;;;1.00;;
75280;SDS011;63874;47.230;39.620;2023-07-28T15:57:08;1.17;;;0.70;;
75280;SDS011;63874;47.230;39.620;2023-07-28T15:59:34;0.80;;;0.50;;
75280;SDS011;63874;47.230;39.620;2023-07-28T16:02:01;1.05;;;0.13;;
75280;SDS011;63874;47.230;39.620;2023-07-28T16:04:27;0.90;;;0.10;;
75280;SDS011;63874;47.230;39.620;2023-07-28T16:06:53;0.32;;;0.13;;
75280;SDS011;63874;47.230;39.620;2023-07-28T16:09:19;0.82;;;0.20;;
75280;SDS011;63874;47.230;39.620;2023-07-28T16:11:45;0.40;;;0.20;;
75280;SDS011;63874;47.230;39.620;2023-07-28T16:14:11;1.00;;;0.63;;
75280;SDS011;63874;47.230;39.620;2023-07-28T16:16:37;1.10;;;0.55;;
75280;SDS011;63874;47.230;39.620;2023-07-28T16:19:04;0.90;;;0.57;;
75280;SDS011;63874;47.230;39.620;2023-07-28T16:21:31;1.02;;;0.13;;
75280;SDS011;63874;47.230;39.620;2023-07-28T16:24:00;0.60;;;0.40;;
75280;SDS011;63874;47.230;39.620;2023-07-28T16:26:26;1.48;;;0.73;;
75280;SDS011;63874;47.230;39.620;2023-07-28T16:28:52;1.25;;;0.80;;
75280;SDS011;63874;47.230;39.620;2023-07-28T16:31:17;0.38;;;0.10;;
75280;SDS011;63874;47.230;39.620;2023-07-28T16:33:43;0.30;;;0.10;;
75280;SDS011;63874;47.230;39.620;2023-07-28T16:36:09;0.80;;;0.55;;
75280;SDS011;63874;47.230;39.620;2023-07-28T16:38:35;1.25;;;0.75;;
75280;SDS011;63874;47.230;39.620;2023-07-28T16:41:01;0.95;;;0.47;;
75280;SDS011;63874;47.230;39.620;2023-07-28T16:43:27;0.50;;;0.20;;
75280;SDS011;63874;47.230;39.620;2023-07-28T16:45:52;1.02;;;0.43;;
75280;SDS011;63874;47.230;39.620;2023-07-28T16:48:18;0.98;;;0.20;;
75280;SDS011;63874;47.230;39.620;2023-07-28T16:50:44;0.43;;;0.25;;
75280;SDS011;63874;47.230;39.620;2023-07-28T16:53:10;1.48;;;0.82;;
75280;SDS011;63874;47.230;39.620;2023-07-28T16:55:36;0.82;;;0.13;;
75280;SDS011;63874;47.230;39.620;2023-07-28T16:58:01;1.08;;;0.10;;
75280;SDS011;63874;47.230;39.620;2023-07-28T17:00:27;1.05;;;0.32;;
75280;SDS011;63874;47.230;39.620;2023-07-28T17:02:53;0.43;;;0.10;;
75280;SDS011;63874;47.230;39.620;2023-07-28T17:05:19;0.50;;;0.10;;
75280;SDS011;63874;47.230;39.620;2023-07-28T17:07:45;0.73;;;0.38;;
75280;SDS011;63874;47.230;39.620;2023-07-28T17:10:11;1.33;;;0.80;;
75280;SDS011;63874;47.230;39.620;2023-07-28T17:12:37;1.20;;;0.77;;
75280;SDS011;63874;47.230;39.620;2023-07-28T17:15:03;1.58;;;0.60;;
75280;SDS011;63874;47.230;39.620;2023-07-28T17:17:29;0.80;;;0.55;;
75280;SDS011;63874;47.230;39.620;2023-07-28T17:19:58;0.32;;;0.05;;
75280;SDS011;63874;47.230;39.620;2023-07-28T17:22:24;0.68;;;0.40;;
75280;SDS011;63874;47.230;39.620;2023-07-28T17:24:50;1.45;;;0.20;;
75280;SDS011;63874;47.230;39.620;2023-07-28T17:27:17;0.52;;;0.22;;
75280;SDS011;63874;47.230;39.620;2023-07-28T17:29:46;0.73;;;0.15;;
75280;SDS011;63874;47.230;39.620;2023-07-28T17:32:12;0.47;;;0.10;;
75280;SDS011;63874;47.230;39.620;2023-07-28T17:34:38;1.85;;;0.80;;
75280;SDS011;63874;47.230;39.620;2023-07-28T17:37:04;1.17;;;0.80;;
75280;SDS011;63874;47.230;39.620;2023-07-28T17:39:31;0.30;;;0.10;;
75280;SDS011;63874;47.230;39.620;2023-07-28T17:41:57;1.42;;;0.70;;
75280;SDS011;63874;47.230;39.620;2023-07-28T17:44:23;0.90;;;0.43;;
75280;SDS011;63874;47.230;39.620;2023-07-28T17:46:50;0.47;;;0.13;;
75280;SDS011;63874;47.230;39.620;2023-07-28T17:49:15;1.27;;;0.32;;
75280;SDS011;63874;47.230;39.620;2023-07-28T17:51:41;1.58;;;0.60;;
75280;SDS011;63874;47.230;39.620;2023-07-28T17:54:07;1.08;;;0.65;;
75280;SDS011;63874;47.230;39.620;2023-07-28T17:56:36;0.45;;;0.10;;
75280;SDS011;63874;47.230;39.620;2023-07-28T17:59:06;0.75;;;0.22;;
75280;SDS011;63874;47.230;39.620;2023-07-28T18:01:32;1.85;;;0.68;;
75280;SDS011;63874;47.230;39.620;2023-07-28T18:03:59;1.08;;;0.75;;
75280;SDS011;63874;47.230;39.620;2023-07-28T18:06:25;0.90;;;0.10;;
75280;SDS011;63874;47.230;39.620;2023-07-28T18:08:51;1.52;;;0.32;;
75280;SDS011;63874;47.230;39.620;2023-07-28T18:11:17;1.10;;;0.10;;
75280;SDS011;63874;47.230;39.620;2023-07-28T18:13:43;1.25;;;0.43;;
75280;SDS011;63874;47.230;39.620;2023-07-28T18:16:08;1.80;;;0.85;;
75280;SDS011;63874;47.230;39.620;2023-07-28T18:18:34;0.60;;;0.13;;
75280;SDS011;63874;47.230;39.620;2023-07-28T18:21:00;1.60;;;0.68;;
75280;SDS011;63874;47.230;39.620;2023-07-28T18:23:26;1.50;;;0.68;;
75280;SDS011;63874;47.230;39.620;2023-07-28T18:25:52;0.70;;;0.13;;
75280;SDS011;63874;47.230;39.620;2023-07-28T18:28:18;1.98;;;1.13;;
75280;SDS011;63874;47.230;39.620;2023-07-28T18:30:44;1.55;;;0.57;;
75280;SDS011;63874;47.230;39.620;2023-07-28T18:33:10;1.08;;;0.68;;
75280;SDS011;63874;47.230;39.620;2023-07-28T18:35:36;0.95;;;0.20;;
75280;SDS011;63874;47.230;39.620;2023-07-28T18:38:02;1.27;;;0.60;;
75280;SDS011;63874;47.230;39.620;2023-07-28T18:40:28;1.10;;;0.70;;
75280;SDS011;63874;47.230;39.620;2023-07-28T18:42:54;0.77;;;0.40;;
75280;SDS011;63874;47.230;39.620;2023-07-28T18:45:20;1.30;;;0.77;;
75280;SDS011;63874;47.230;39.620;2023-07-28T18:47:46;1.02;;;0.52;;
75280;SDS011;63874;47.230;39.620;2023-07-28T18:50:12;1.52;;;0.80;;
75280;SDS011;63874;47.230;39.620;2023-07-28T18:52:39;1.13;;;0.13;;
75280;SDS011;63874;47.230;39.620;2023-07-28T18:55:05;0.65;;;0.10;;
75280;SDS011;63874;47.230;39.620;2023-07-28T18:57:32;0.45;;;0.30;;
75280;SDS011;63874;47.230;39.620;2023-07-28T18:59:58;1.10;;;0.60;;
75280;SDS011;63874;47.230;39.620;2023-07-28T19:02:24;1.15;;;0.22;;
75280;SDS011;63874;47.230;39.620;2023-07-28T19:04:50;0.82;;;0.68;;
75280;SDS011;63874;47.230;39.620;2023-07-28T19:07:16;0.30;;;0.10;;
75280;SDS011;63874;47.230;39.620;2023-07-28T19:09:46;0.68;;;0.35;;
75280;SDS011;63874;47.230;39.620;2023-07-28T19:12:11;0.55;;;0.13;;
75280;SDS011;63874;47.230;39.620;2023-07-28T19:14:41;1.05;;;0.45;;
75280;SDS011;63874;47.230;39.620;2023-07-28T19:17:09;1.60;;;1.00;;
75280;SDS011;63874;47.230;39.620;2023-07-28T19:19:35;0.43;;;0.13;;
75280;SDS011;63874;47.230;39.620;2023-07-28T19:22:03;0.65;;;0.35;;
75280;SDS011;63874;47.230;39.620;2023-07-28T19:24:29;0.75;;;0.17;;
75280;SDS011;63874;47.230;39.620;2023-07-28T19:26:55;1.50;;;0.80;;
75280;SDS011;63874;47.230;39.620;2023-07-28T19:29:20;1.80;;;0.70;;
75280;SDS011;63874;47.230;39.620;2023-07-28T19:31:49;1.40;;;0.52;;